deformed-offering

Nearby METAR Reports

 

KNUQ - Moffett Nas/Mtn, California, USA
Distance from station: N 9mi, 14km
Updated: Thu, 21-Nov-2019 8:56am PST
NOT Current

 
Barometer: 29.86 inHg , 1011.2 hPa
2019/11/21 16:56 KNUQ 211656Z AUTO A2986 RMK AO2 SLP116 PWINO $
KSJC - San Jose, California, USA
Distance from station: NE 9mi, 14km
Updated: Fri, 06-Dec-2019 1:53pm PST
Mostly Cloudy
Mostly Cloudy
 Wind from SSE
Wind: SSE 17 mph , 28 km/h
Temperature: 66°F , 19°C
Dew Point: 48°F , 9°C
Humidity: 52%
Barometer: 29.93 inHg , 1013.5 hPa
Clouds: Mostly Cloudy
Visibility: 10 miles , 16 km
Cloud details: Few Clouds 2700 ft
Mostly Cloudy 5000 ft
Mostly Cloudy 6000 ft
2019/12/06 21:53 KSJC 062153Z 15015KT 10SM FEW027 BKN050 BKN060 19/09 A2993 RMK AO2 RAE2059 SLP134 P0000 T01940089
 
KRHV - San Jose/Reid, California, USA
Distance from station: ENE 12mi, 19km
Updated: Fri, 06-Dec-2019 1:47pm PST
Mostly Cloudy
Mostly Cloudy
 Wind from SSE
Wind: SSE 15 mph , 24 km/h, Gust: 24 mph , 39 km/h
Temperature: 66°F , 19°C
Dew Point: 46°F , 8°C
Humidity: 49%
Barometer: 29.94 inHg , 1013.9 hPa
Clouds: Mostly Cloudy
Visibility: 10 miles , 16 km
Cloud details: Partly Cloudy 3500 ft
Mostly Cloudy 5000 ft
2019/12/06 21:47 KRHV 062147Z 15013G21KT 10SM SCT035 BKN050 19/08 A2994
KPAO - Palo Alto, California, USA
Distance from station: NNW 14mi, 23km
Updated: Fri, 06-Dec-2019 1:47pm PST
Mostly Cloudy
Mostly Cloudy
 Wind from SSE
Wind: SSE 17 mph , 28 km/h, Gust: 23 mph , 37 km/h
Temperature: 66°F , 19°C
Dew Point: 50°F , 10°C
Humidity: 56%
Barometer: 29.93 inHg , 1013.5 hPa
Clouds: Mostly Cloudy
Visibility: 10 miles , 16 km
Cloud details: Mostly Cloudy 4000 ft
2019/12/06 21:47 KPAO 062147Z 16015G20KT 10SM BKN040 19/10 A2993
 
KSQL - San Carlos Airpo, California, USA
Distance from station: NW 21mi, 34km
Updated: Fri, 06-Dec-2019 1:48pm PST
Overcast
Overcast
 Wind from SE
Wind: SE 12 mph , 19 km/h, Gust: 17 mph , 28 km/h
Temperature: 64°F , 18°C
Dew Point: 50°F , 10°C
Humidity: 60%
Barometer: 29.94 inHg , 1013.9 hPa
Clouds: Overcast
Visibility: 10 miles , 16 km
Cloud details: Mostly Cloudy 4200 ft
Overcast 5000 ft
2019/12/06 21:48 KSQL 062148Z 13010G15KT 10SM BKN042 OVC050 18/10 A2994
KE16 - San Martin, California, USA
Distance from station: ESE 27mi, 43km
Updated: Thu, 14-Nov-2019 1:35am PST
NOT Current
Overcast
Overcast
 Wind from SE
Wind: SE 7 mph , 11 km/h
Temperature: 54°F , 12°C
Dew Point: 50°F , 10°C
Humidity: 88%
Barometer: 30.05 inHg , 1017.6 hPa
Clouds: Overcast
Visibility: 10 miles , 16 km
Cloud details: Overcast 1400 ft
2019/11/14 09:35 KE16 140935Z AUTO 13006KT 10SM OVC014 12/10 A3005 RMK AO2
 
KWVI - Watsonville, California, USA
Distance from station: SSE 27mi, 44km
Updated: Fri, 06-Dec-2019 1:53pm PST
Overcast
Overcast
 Wind from SSE
Wind: SSE 16 mph , 26 km/h, Gust: 22 mph , 35 km/h
Temperature: 66°F , 19°C
Dew Point: 48°F , 9°C
Humidity: 52%
Barometer: 29.96 inHg , 1014.6 hPa
Clouds: Overcast
Visibility: 10 miles , 16 km
Cloud details: Overcast 5500 ft
2019/12/06 21:53 KWVI 062153Z AUTO 16014G19KT 10SM OVC055 19/09 A2996 RMK AO2 SLP145 T01940094
KHWD - Hayward, California, USA
Distance from station: N 28mi, 44km
Updated: Fri, 06-Dec-2019 1:54pm PST
Mostly Cloudy
Mostly Cloudy
 Wind from S
Wind: S 10 mph , 17 km/h, Gust: 18 mph , 30 km/h
Temperature: 64°F , 18°C
Dew Point: 48°F , 9°C
Humidity: 56%
Barometer: 29.93 inHg , 1013.5 hPa
Clouds: Mostly Cloudy
Visibility: 10 miles , 16 km
Cloud details: Mostly Cloudy 5000 ft
2019/12/06 21:54 KHWD 062154Z 17009G16KT 10SM BKN050 18/09 A2993 RMK AO2 SLP146 T01830089
 
KSFO - San Francisco, California, USA
Distance from station: NW 30mi, 49km
Updated: Fri, 06-Dec-2019 1:56pm PST
Mostly Cloudy
Mostly Cloudy
 Wind from S
Wind: S 15 mph , 24 km/h
Temperature: 64°F , 18°C
Dew Point: 48°F , 9°C
Humidity: 56%
Barometer: 29.93 inHg , 1013.5 hPa
Clouds: Mostly Cloudy
Visibility: 9 miles , 14 km
Cloud details: Mostly Cloudy 4000 ft
2019/12/06 21:56 KSFO 062156Z 17013KT 9SM BKN040 18/09 A2993 RMK AO2 SLP135 T01780094
KHAF - Half Moon Bay, California, USA
Distance from station: WNW 31mi, 50km
Updated: Fri, 06-Dec-2019 1:55pm PST
Overcast
Overcast
 Wind from SSE
Wind: SSE 23 mph , 37 km/h, Gust: 30 mph , 48 km/h
Temperature: 59°F , 15°C
Dew Point: 54°F , 12°C
Humidity: 82%
Barometer: 29.95 inHg , 1014.2 hPa
Clouds: Overcast
Visibility: 8 miles , 13 km
Cloud details: Few Clouds 2600 ft
Overcast 3900 ft
2019/12/06 21:55 KHAF 062155Z AUTO 16020G26KT 8SM FEW026 OVC039 15/12 A2995 RMK AO2
 
KOAK - Oakland, California, USA
Distance from station: NNW 31mi, 50km
Updated: Fri, 06-Dec-2019 1:53pm PST
Overcast
Overcast
 Wind from S
Wind: S 8 mph , 13 km/h
Temperature: 63°F , 17°C
Dew Point: 52°F , 11°C
Humidity: 68%
Barometer: 29.94 inHg , 1013.9 hPa
Clouds: Overcast
Visibility: 10 miles , 16 km
Cloud details: Mostly Cloudy 4700 ft
Overcast 6500 ft
2019/12/06 21:53 KOAK 062153Z 17007KT 10SM BKN047 OVC065 17/11 A2994 RMK AO2 SLP138 T01720106
KLVK - Livermore, California, USA
Distance from station: NNE 31mi, 51km
Updated: Fri, 06-Dec-2019 1:53pm PST
Overcast
Overcast
 Wind from S
Wind: S 9 mph , 15 km/h
Temperature: 66°F , 19°C
Dew Point: 45°F , 7°C
Humidity: 46%
Barometer: 29.93 inHg , 1013.5 hPa
Clouds: Overcast
Visibility: 10 miles , 16 km
Cloud details: Overcast 5500 ft
2019/12/06 21:53 KLVK 062153Z 18008KT 10SM OVC055 19/07 A2993 RMK AO2 SLP132 T01890072
 
KCVH - Hollister Muni, California, USA
Distance from station: SE 42mi, 68km
Updated: Fri, 06-Dec-2019 1:55pm PST
Clear
Clear
 Wind from SSE
Wind: SSE 20 mph , 31 km/h, Gust: 26 mph , 43 km/h
Temperature: 68°F , 20°C
Dew Point: 46°F , 8°C
Humidity: 46%
Barometer: 29.97 inHg , 1014.9 hPa
Clouds: Clear
Visibility: 10 miles , 16 km
2019/12/06 21:55 KCVH 062155Z AUTO 15017G23KT 10SM CLR 20/08 A2997 RMK A01
KSNS - Salinas, California, USA
Distance from station: SSE 48mi, 77km
Updated: Fri, 06-Dec-2019 1:53pm PST
Clear
Clear
 Wind from SE
Wind: SE 25 mph , 41 km/h, Gust: 32 mph , 52 km/h
Temperature: 64°F , 18°C
Dew Point: 48°F , 9°C
Humidity: 56%
Barometer: 29.94 inHg , 1013.9 hPa
Clouds: Clear
Visibility: 10 miles , 16 km
2019/12/06 21:53 KSNS 062153Z 14022G28KT 10SM CLR 18/09 A2994 RMK AO2 PK WND 14031/2117 SLP147 T01830094
 
KMRY - Monterey, California, USA
Distance from station: SSE 49mi, 78km
Updated: Fri, 06-Dec-2019 1:54pm PST
Overcast
Overcast
 Wind from N
Wind: N 6 mph , 9 km/h
Temperature: 66°F , 19°C
Dew Point: 48°F , 9°C
Humidity: 52%
Barometer: 29.96 inHg , 1014.6 hPa
Clouds: Overcast
Visibility: 10 miles , 16 km
Cloud details: Overcast 5500 ft
2019/12/06 21:54 KMRY 062154Z 01005KT 10SM OVC055 19/09 A2996 RMK AO2 SLP156 T01940094
KCCR - Concord, California, USA
Distance from station: N 50mi, 81km
Updated: Fri, 06-Dec-2019 1:53pm PST
Overcast
Overcast
 Wind from WSW
Wind: WSW 5 mph , 7 km/h
Temperature: 59°F , 15°C
Dew Point: 52°F , 11°C
Humidity: 77%
Barometer: 29.94 inHg , 1013.9 hPa
Clouds: Overcast
Visibility: 8 miles , 13 km
Cloud details: Overcast 5000 ft
2019/12/06 21:53 KCCR 062153Z 25004KT 8SM OVC050 15/11 A2994 RMK AO2 SLP123 T01500106
deformed-offering